createdAt,value
2018-12-18T00:00:29.529Z,67.63
2018-12-18T00:03:00.018Z,65.70
2018-12-18T00:05:35.554Z,68.60
2018-12-18T00:08:06.577Z,69.57
2018-12-18T00:10:42.080Z,68.03
2018-12-18T00:13:12.479Z,69.53
2018-12-18T00:15:42.995Z,72.63
2018-12-18T00:18:13.360Z,73.73
2018-12-18T00:20:43.756Z,71.53
2018-12-18T00:23:14.186Z,70.33
2018-12-18T00:25:44.605Z,71.50
2018-12-18T00:28:15.085Z,72.97
2018-12-18T00:30:45.557Z,68.17
2018-12-18T00:33:15.798Z,68.90
2018-12-18T00:35:46.097Z,66.67
2018-12-18T00:38:16.460Z,71.30
2018-12-18T00:40:46.761Z,66.70
2018-12-18T00:43:17.177Z,71.33
2018-12-18T00:45:46.948Z,67.90
2018-12-18T00:48:17.214Z,64.70
2018-12-18T00:50:47.508Z,71.03
2018-12-18T00:53:18.017Z,73.57
2018-12-18T00:55:48.523Z,75.37
2018-12-18T00:58:18.692Z,74.40
2018-12-18T01:00:49.029Z,83.63
2018-12-18T01:03:19.345Z,80.97
2018-12-18T01:05:49.722Z,76.30
2018-12-18T01:08:20.150Z,72.10
2018-12-18T01:10:50.612Z,71.23
2018-12-18T01:13:20.930Z,74.80
2018-12-18T01:15:51.266Z,71.90
2018-12-18T01:18:21.729Z,72.20
2018-12-18T01:20:52.137Z,68.53
2018-12-18T01:23:21.944Z,69.20
2018-12-18T01:25:52.140Z,66.53
2018-12-18T01:28:22.488Z,66.90
2018-12-18T01:30:52.913Z,63.53
2018-12-18T01:33:23.175Z,66.17
2018-12-18T01:35:53.437Z,65.33
2018-12-18T01:38:23.961Z,67.63
2018-12-18T01:40:54.262Z,71.00
2018-12-18T01:43:24.958Z,66.10
2018-12-18T01:45:55.478Z,58.53
2018-12-18T01:48:25.821Z,58.27
2018-12-18T01:50:56.216Z,53.40
2018-12-18T01:53:26.537Z,53.60
2018-12-18T01:55:56.961Z,54.47
2018-12-18T01:58:27.425Z,53.87
2018-12-18T02:00:57.667Z,55.03
2018-12-18T02:03:28.081Z,49.83
2018-12-18T02:05:58.365Z,52.37
2018-12-18T02:08:28.843Z,52.27
2018-12-18T02:10:59.213Z,53.40
2018-12-18T02:13:29.657Z,53.60
2018-12-18T02:16:00.019Z,54.73
2018-12-18T02:18:30.552Z,53.57
2018-12-18T02:21:00.893Z,52.53
2018-12-18T02:23:31.157Z,51.17
2018-12-18T02:26:01.493Z,55.10
2018-12-18T02:28:31.953Z,56.63
2018-12-18T02:31:02.180Z,56.80
2018-12-18T02:33:32.652Z,57.33
2018-12-18T02:36:03.029Z,60.10
2018-12-18T02:38:33.470Z,56.37
2018-12-18T02:41:03.726Z,55.70
2018-12-18T02:43:34.081Z,56.20
2018-12-18T02:46:04.522Z,52.93
2018-12-18T02:48:35.070Z,52.77
2018-12-18T02:51:05.426Z,51.63
2018-12-18T02:53:35.857Z,52.67
2018-12-18T02:56:06.185Z,53.87
2018-12-18T02:58:35.885Z,54.00
2018-12-18T03:01:06.193Z,50.53
2018-12-18T03:03:37.112Z,52.27
2018-12-18T03:06:07.865Z,52.43
2018-12-18T03:08:38.275Z,50.87
2018-12-18T03:11:08.683Z,52.13
2018-12-18T03:13:39.054Z,51.20
2018-12-18T03:16:09.598Z,51.10
2018-12-18T03:18:40.086Z,50.97
2018-12-18T03:21:10.594Z,52.13
2018-12-18T03:23:41.004Z,51.37
2018-12-18T03:26:11.668Z,51.03
2018-12-18T03:28:42.145Z,51.67
2018-12-18T03:31:12.414Z,52.20
2018-12-18T03:33:42.823Z,50.13
2018-12-18T03:36:13.152Z,49.93
2018-12-18T03:38:43.652Z,54.17
2018-12-18T03:41:14.036Z,55.00
2018-12-18T03:43:44.385Z,51.87
2018-12-18T03:46:14.757Z,53.97
2018-12-18T03:48:45.137Z,55.00
2018-12-18T03:51:15.606Z,52.57
2018-12-18T03:53:45.894Z,52.40
2018-12-18T03:56:16.180Z,52.13
2018-12-18T03:58:46.567Z,55.10
2018-12-18T04:01:16.978Z,51.50
2018-12-18T04:03:47.226Z,52.63
2018-12-18T04:06:17.519Z,52.90
2018-12-18T04:08:47.997Z,51.10
2018-12-18T04:11:18.514Z,51.93
2018-12-18T04:13:49.042Z,51.63
2018-12-18T04:16:19.308Z,52.63
2018-12-18T04:18:49.785Z,50.53
2018-12-18T04:21:20.085Z,54.20
2018-12-18T04:23:50.553Z,53.90
2018-12-18T04:26:21.190Z,57.87
2018-12-18T04:28:51.570Z,60.10
2018-12-18T04:31:21.977Z,58.10
2018-12-18T04:33:52.359Z,57.13
2018-12-18T04:36:22.841Z,56.40
2018-12-18T04:38:53.140Z,56.83
2018-12-18T04:41:23.452Z,57.40
2018-12-18T04:43:53.905Z,58.67
2018-12-18T04:46:24.271Z,57.57
2018-12-18T04:48:54.574Z,61.63
2018-12-18T04:51:24.877Z,56.83
2018-12-18T04:53:55.305Z,51.47
2018-12-18T04:56:25.636Z,52.27
2018-12-18T04:58:55.909Z,53.13
2018-12-18T05:01:26.189Z,53.23
2018-12-18T05:03:56.644Z,55.17
2018-12-18T05:06:26.895Z,57.33
2018-12-18T05:08:57.150Z,56.60
2018-12-18T05:11:27.465Z,55.77
2018-12-18T05:13:57.839Z,57.93
2018-12-18T05:16:28.202Z,56.30
2018-12-18T05:18:58.540Z,57.63
2018-12-18T05:21:28.863Z,52.70
2018-12-18T05:23:59.439Z,50.47
2018-12-18T05:26:29.801Z,51.27
2018-12-18T05:29:00.313Z,49.33
2018-12-18T05:31:30.616Z,52.93
2018-12-18T05:34:01.017Z,48.97
2018-12-18T05:36:31.572Z,50.50
2018-12-18T05:39:02.064Z,51.33
2018-12-18T05:41:32.485Z,54.03
2018-12-18T05:44:02.796Z,55.43
2018-12-18T05:46:33.112Z,56.67
2018-12-18T05:49:03.629Z,58.47
2018-12-18T05:51:33.977Z,57.20
2018-12-18T05:54:04.416Z,55.63
2018-12-18T05:56:34.837Z,52.57
2018-12-18T05:59:04.576Z,52.70
2018-12-18T06:01:34.757Z,53.20
2018-12-18T06:04:05.204Z,51.57
2018-12-18T06:06:35.510Z,53.33
2018-12-18T06:09:07.174Z,57.33
2018-12-18T06:11:37.612Z,59.67
2018-12-18T06:14:07.975Z,57.07
2018-12-18T06:16:38.312Z,51.73
2018-12-18T06:19:08.772Z,53.57
2018-12-18T06:21:39.156Z,53.67
2018-12-18T06:24:09.681Z,61.03
2018-12-18T06:26:40.100Z,56.30
2018-12-18T06:29:10.423Z,56.57
2018-12-18T06:31:40.958Z,60.13
2018-12-18T06:34:11.346Z,58.13
2018-12-18T06:36:41.761Z,68.63
2018-12-18T06:39:12.128Z,78.27
2018-12-18T06:41:42.524Z,82.43
2018-12-18T06:44:12.882Z,74.20
2018-12-18T06:46:43.145Z,82.30
2018-12-18T06:49:13.492Z,67.83
2018-12-18T06:51:43.749Z,70.67
2018-12-18T06:54:14.158Z,69.73
2018-12-18T06:56:44.529Z,60.73
2018-12-18T06:59:15.029Z,63.23
2018-12-18T07:01:45.397Z,60.70
2018-12-18T07:04:15.936Z,73.77
2018-12-18T07:06:46.277Z,69.33
2018-12-18T07:09:16.694Z,77.80
2018-12-18T07:11:46.931Z,79.73
2018-12-18T07:14:17.351Z,70.57
2018-12-18T07:16:48.038Z,69.43
2018-12-18T07:19:18.574Z,65.07
2018-12-18T07:21:48.940Z,63.13
2018-12-18T07:24:19.256Z,72.00
2018-12-18T07:26:49.560Z,87.13
2018-12-18T07:29:20.044Z,81.20
2018-12-18T07:31:51.087Z,79.67
2018-12-18T07:34:21.348Z,74.73
2018-12-18T07:36:52.188Z,72.97
2018-12-18T07:39:22.567Z,70.97
2018-12-18T07:41:53.095Z,73.63
2018-12-18T07:44:23.522Z,67.07
2018-12-18T07:46:53.797Z,82.30
2018-12-18T07:49:24.686Z,79.00
2018-12-18T07:51:54.848Z,71.60
2018-12-18T07:54:25.185Z,54.73
2018-12-18T07:56:55.553Z,46.50
2018-12-18T07:59:26.110Z,47.83
2018-12-18T08:01:56.721Z,47.07
2018-12-18T08:04:27.096Z,47.27
2018-12-18T08:06:57.401Z,64.73
2018-12-18T08:09:27.748Z,56.33
2018-12-18T08:11:58.170Z,67.23
2018-12-18T08:14:30.154Z,55.00
2018-12-18T08:17:00.435Z,53.47
2018-12-18T08:19:30.945Z,55.10
2018-12-18T08:22:01.222Z,58.47
2018-12-18T08:24:31.421Z,60.50
2018-12-18T08:27:01.536Z,62.63
2018-12-18T08:29:32.215Z,113.47
2018-12-18T08:32:02.413Z,204.20
2018-12-18T08:34:32.725Z,151.80
2018-12-18T08:37:02.441Z,100.83
2018-12-18T08:39:32.764Z,91.17
2018-12-18T08:42:03.036Z,78.07
2018-12-18T08:44:33.343Z,124.73
2018-12-18T08:47:03.677Z,102.30
2018-12-18T08:49:33.829Z,65.10
2018-12-18T08:52:04.130Z,58.80
2018-12-18T08:54:34.410Z,53.63
2018-12-18T08:57:04.669Z,48.10
2018-12-18T08:59:34.868Z,47.47
2018-12-18T09:02:05.146Z,46.40
2018-12-18T09:04:35.547Z,48.93
2018-12-18T09:07:06.002Z,63.53
2018-12-18T09:09:36.382Z,66.13
2018-12-18T09:12:06.870Z,62.03
2018-12-18T09:14:37.345Z,60.13
2018-12-18T09:17:08.560Z,54.00
2018-12-18T09:19:38.899Z,53.90
2018-12-18T09:22:09.202Z,55.03
2018-12-18T09:24:39.613Z,53.37
2018-12-18T09:27:09.885Z,43.10
2018-12-18T09:29:40.231Z,37.33
2018-12-18T09:32:10.524Z,33.80
2018-12-18T09:34:40.812Z,34.67
2018-12-18T09:37:11.110Z,35.83
2018-12-18T09:39:42.523Z,40.07
2018-12-18T09:42:17.969Z,37.87
2018-12-18T09:44:48.272Z,44.23
2018-12-18T09:47:18.585Z,43.10
2018-12-18T09:49:48.813Z,45.17
2018-12-18T09:52:19.061Z,46.97
2018-12-18T09:54:49.414Z,47.07
2018-12-18T09:58:24.318Z,37.23
2018-12-18T10:00:55.721Z,36.10
2018-12-18T10:03:25.011Z,43.93
2018-12-18T10:05:56.471Z,50.73
2018-12-18T10:08:25.715Z,40.67
2018-12-18T10:10:55.937Z,38.43
2018-12-18T10:13:26.166Z,40.57
2018-12-18T10:15:56.467Z,39.17
2018-12-18T10:18:27.030Z,38.43
2018-12-18T10:20:57.365Z,40.83
2018-12-18T10:23:27.633Z,39.23
2018-12-18T10:25:57.944Z,37.43
2018-12-18T10:28:28.148Z,40.87
2018-12-18T10:30:58.614Z,47.20
2018-12-18T10:33:28.865Z,43.70
2018-12-18T10:36:03.007Z,41.17
2018-12-18T10:38:29.500Z,41.10
2018-12-18T10:40:59.836Z,40.27
2018-12-18T10:43:30.018Z,36.50
2018-12-18T10:45:59.860Z,39.10
2018-12-18T10:48:30.024Z,41.63
2018-12-18T10:51:00.508Z,46.67
2018-12-18T10:53:30.736Z,40.23
2018-12-18T10:56:01.073Z,48.67
2018-12-18T10:58:31.285Z,63.07
2018-12-18T11:01:06.678Z,46.37
2018-12-18T11:03:37.001Z,55.67
2018-12-18T11:06:09.999Z,49.83
2018-12-18T11:08:37.701Z,53.87
2018-12-18T11:11:08.014Z,42.73
2018-12-18T11:13:38.249Z,40.87
2018-12-18T11:16:08.589Z,40.47
2018-12-18T11:18:38.806Z,39.90
2018-12-18T11:21:09.106Z,48.73
2018-12-18T11:23:39.401Z,50.43
2018-12-18T11:26:09.773Z,48.80
2018-12-18T11:28:39.985Z,43.67
2018-12-18T11:31:10.634Z,47.67
2018-12-18T11:33:40.877Z,63.77
2018-12-18T11:36:16.459Z,46.07
2018-12-18T11:38:41.684Z,45.10
2018-12-18T11:41:12.014Z,45.87
2018-12-18T11:43:42.197Z,44.60
2018-12-18T11:46:12.551Z,43.83
2018-12-18T11:48:42.851Z,43.60
2018-12-18T11:51:13.160Z,43.00
2018-12-18T11:53:43.429Z,54.30
2018-12-18T11:56:13.706Z,49.27
2018-12-18T11:58:43.976Z,47.43
2018-12-18T12:01:14.268Z,46.10
2018-12-18T12:03:44.476Z,47.17
2018-12-18T12:06:14.125Z,48.07
2018-12-18T12:08:44.297Z,54.17
2018-12-18T12:11:14.668Z,62.97
2018-12-18T12:13:44.887Z,57.03
2018-12-18T12:16:15.172Z,54.57
2018-12-18T12:18:45.573Z,53.40
2018-12-18T12:21:15.813Z,53.40
2018-12-18T12:23:46.116Z,48.67
2018-12-18T12:26:21.548Z,49.60
2018-12-18T12:28:51.791Z,48.33
2018-12-18T12:31:22.029Z,54.53
2018-12-18T12:33:52.256Z,60.60
2018-12-18T12:36:22.589Z,53.30
2018-12-18T12:38:52.905Z,73.20
2018-12-18T12:41:23.185Z,56.93
2018-12-18T12:43:53.557Z,51.53
2018-12-18T12:46:24.002Z,59.97
2018-12-18T12:48:54.823Z,72.43
2018-12-18T12:51:24.736Z,57.87
2018-12-18T12:53:54.962Z,49.93
2018-12-18T12:56:25.308Z,55.70
2018-12-18T12:58:55.578Z,57.00
2018-12-18T13:01:25.938Z,70.50
2018-12-18T13:03:56.278Z,60.13
2018-12-18T13:06:26.582Z,54.23
2018-12-18T13:08:56.970Z,59.47
2018-12-18T13:11:27.354Z,89.17
2018-12-18T13:13:57.582Z,65.80
2018-12-18T13:16:27.898Z,51.57
2018-12-18T13:18:58.165Z,53.40
2018-12-18T13:21:28.489Z,59.30
2018-12-18T13:23:58.810Z,59.17
2018-12-18T13:26:29.200Z,52.73
2018-12-18T13:28:59.006Z,57.63
2018-12-18T13:31:29.249Z,57.60
2018-12-18T13:33:59.557Z,59.07
2018-12-18T13:36:29.823Z,55.90
2018-12-18T13:39:00.145Z,56.83
2018-12-18T13:41:30.741Z,52.03
2018-12-18T13:44:00.993Z,53.90
2018-12-18T13:46:31.334Z,51.77
2018-12-18T13:49:01.668Z,49.23
2018-12-18T13:51:32.023Z,69.40
2018-12-18T13:54:02.277Z,66.97
2018-12-18T13:56:32.702Z,66.30
2018-12-18T13:59:02.917Z,69.23
2018-12-18T14:01:33.181Z,66.57
2018-12-18T14:04:03.522Z,82.97
2018-12-18T14:06:33.884Z,57.70
2018-12-18T14:09:04.453Z,61.73
2018-12-18T14:11:34.777Z,73.80
2018-12-18T14:14:05.290Z,72.77
2018-12-18T14:16:35.777Z,84.27
2018-12-18T14:19:06.004Z,85.27
2018-12-18T14:21:36.344Z,87.10
2018-12-18T14:24:06.623Z,80.37
2018-12-18T14:26:36.969Z,73.80
2018-12-18T14:29:07.160Z,68.77
2018-12-18T14:31:37.795Z,58.87
2018-12-18T14:34:08.009Z,56.63
2018-12-18T14:36:38.366Z,61.60
2018-12-18T14:39:09.008Z,64.30
2018-12-18T14:41:39.342Z,62.97
2018-12-18T14:44:09.581Z,56.97
2018-12-18T14:46:39.867Z,60.33
2018-12-18T14:49:10.072Z,57.67
2018-12-18T14:51:40.380Z,63.07
2018-12-18T14:54:10.609Z,64.10
2018-12-18T14:56:40.904Z,64.40
2018-12-18T14:59:11.217Z,61.80
2018-12-18T15:01:41.713Z,64.60
2018-12-18T15:04:12.021Z,69.97
2018-12-18T15:06:41.751Z,66.20
2018-12-18T15:09:11.872Z,60.73
2018-12-18T15:11:42.217Z,63.77
2018-12-18T15:14:12.514Z,69.40
2018-12-18T15:16:42.751Z,84.63
2018-12-18T15:19:13.066Z,93.70
2018-12-18T15:21:43.483Z,85.90
2018-12-18T15:24:13.917Z,77.33
2018-12-18T15:26:44.194Z,74.97
2018-12-18T15:29:14.426Z,66.60
2018-12-18T15:31:45.377Z,58.30
2018-12-18T15:34:15.622Z,65.23
2018-12-18T15:36:46.205Z,62.43
2018-12-18T15:39:16.538Z,59.57
2018-12-18T15:41:47.130Z,63.50
2018-12-18T15:44:17.473Z,63.00
2018-12-18T15:46:47.783Z,61.57
2018-12-18T15:49:18.081Z,60.77
2018-12-18T15:51:48.685Z,60.57
2018-12-18T15:54:18.973Z,60.50
2018-12-18T15:56:49.350Z,61.80
2018-12-18T15:59:19.650Z,58.90
2018-12-18T16:01:49.896Z,61.67
2018-12-18T16:04:20.128Z,68.17
2018-12-18T16:06:50.426Z,74.60
2018-12-18T16:09:20.598Z,65.13
2018-12-18T16:11:50.866Z,57.20
2018-12-18T16:14:21.124Z,55.90
2018-12-18T16:16:51.394Z,57.93
2018-12-18T16:19:21.795Z,63.57
2018-12-18T16:21:52.341Z,52.13
2018-12-18T16:24:23.875Z,53.60
2018-12-18T16:26:52.873Z,53.50
2018-12-18T16:29:23.265Z,56.00
2018-12-18T16:31:53.537Z,52.50
2018-12-18T16:34:23.809Z,50.73
2018-12-18T16:36:54.123Z,56.70
2018-12-18T16:39:24.393Z,69.23
2018-12-18T16:41:54.772Z,80.77
2018-12-18T16:44:25.149Z,82.60
2018-12-18T16:46:55.461Z,66.50
2018-12-18T16:49:25.785Z,60.40
2018-12-18T16:51:56.340Z,67.40
2018-12-18T16:54:26.801Z,60.67
2018-12-18T16:56:57.186Z,61.33
2018-12-18T16:59:27.461Z,68.20
2018-12-18T17:01:57.702Z,62.73
2018-12-18T17:04:27.905Z,71.33
2018-12-18T17:06:58.220Z,57.77
2018-12-18T17:09:28.590Z,64.77
2018-12-18T17:11:58.910Z,67.17
2018-12-18T17:14:29.131Z,55.60
2018-12-18T17:16:59.365Z,56.23
2018-12-18T17:19:29.610Z,70.83
2018-12-18T17:21:59.901Z,72.93
2018-12-18T17:24:30.226Z,82.77
2018-12-18T17:27:00.569Z,82.43
2018-12-18T17:29:30.168Z,77.50
2018-12-18T17:31:59.805Z,75.80
2018-12-18T17:34:30.122Z,70.07
2018-12-18T17:37:00.378Z,64.20
2018-12-18T17:39:31.594Z,64.13
2018-12-18T17:42:01.777Z,64.40
2018-12-18T17:44:31.982Z,61.77
2018-12-18T17:47:02.220Z,61.50
2018-12-18T17:49:32.416Z,66.93
2018-12-18T17:52:02.662Z,70.47
2018-12-18T17:54:32.985Z,70.83
2018-12-18T17:57:03.265Z,80.90
2018-12-18T17:59:33.587Z,90.83
2018-12-18T18:02:04.037Z,77.50
2018-12-18T18:04:34.298Z,74.37
2018-12-18T18:07:04.507Z,72.67
2018-12-18T18:09:34.842Z,73.87
2018-12-18T18:12:05.176Z,70.60
2018-12-18T18:14:36.180Z,68.40
2018-12-18T18:17:05.705Z,66.57
2018-12-18T18:19:36.061Z,72.43
2018-12-18T18:22:06.377Z,72.90
2018-12-18T18:24:36.669Z,84.77
2018-12-18T18:27:06.982Z,66.03
2018-12-18T18:29:37.405Z,70.97
2018-12-18T18:32:07.800Z,81.30
2018-12-18T18:34:38.194Z,92.57
2018-12-18T18:37:08.526Z,83.30
2018-12-18T18:39:38.773Z,76.40
2018-12-18T18:42:08.938Z,73.47
2018-12-18T18:44:39.455Z,64.27
2018-12-18T18:47:09.717Z,57.23
2018-12-18T18:49:40.054Z,65.07
2018-12-18T18:52:10.196Z,64.40
2018-12-18T18:54:40.510Z,59.57
2018-12-18T18:57:10.705Z,65.17
2018-12-18T18:59:41.055Z,69.60
2018-12-18T19:02:11.380Z,75.13
2018-12-18T19:04:41.709Z,71.90
2018-12-18T19:07:12.006Z,72.60
2018-12-18T19:09:42.353Z,72.20
2018-12-18T19:12:12.621Z,65.83
2018-12-18T19:14:43.105Z,71.20
2018-12-18T19:17:13.351Z,64.93
2018-12-18T19:19:43.705Z,67.30
2018-12-18T19:22:14.049Z,83.53
2018-12-18T19:24:44.441Z,90.43
2018-12-18T19:27:14.733Z,79.60
2018-12-18T19:29:45.078Z,68.43
2018-12-18T19:32:15.360Z,75.50
2018-12-18T19:34:45.650Z,75.73
2018-12-18T19:37:15.998Z,67.97
2018-12-18T19:39:46.461Z,71.93
2018-12-18T19:42:16.786Z,76.07
2018-12-18T19:44:47.400Z,93.53
2018-12-18T19:47:17.806Z,99.50
2018-12-18T19:49:48.156Z,98.10
2018-12-18T19:52:18.390Z,96.03
2018-12-18T19:54:48.660Z,95.40
2018-12-18T19:57:19.150Z,78.37
2018-12-18T19:59:49.498Z,72.87
2018-12-18T20:02:19.815Z,75.50
2018-12-18T20:04:50.194Z,77.23
2018-12-18T20:07:20.397Z,93.27
2018-12-18T20:09:50.708Z,106.87
2018-12-18T20:12:21.010Z,105.83
2018-12-18T20:14:51.353Z,109.30
2018-12-18T20:17:21.750Z,88.83
2018-12-18T20:19:52.138Z,82.20
2018-12-18T20:22:22.754Z,83.43
2018-12-18T20:24:53.013Z,77.37
2018-12-18T20:27:23.364Z,72.97
2018-12-18T20:29:53.794Z,64.97
2018-12-18T20:32:23.980Z,68.07
2018-12-18T20:34:54.548Z,76.13
2018-12-18T20:37:24.970Z,82.57
2018-12-18T20:39:55.434Z,86.07
2018-12-18T20:42:25.717Z,101.43
2018-12-18T20:44:56.065Z,96.60
2018-12-18T20:47:25.864Z,93.33
2018-12-18T20:49:56.255Z,82.50
2018-12-18T20:52:26.721Z,83.00
2018-12-18T20:54:57.193Z,75.53
2018-12-18T20:57:27.512Z,67.07
2018-12-18T20:59:58.021Z,64.40
2018-12-18T21:02:28.593Z,59.80
2018-12-18T21:04:59.066Z,55.90
2018-12-18T21:07:29.297Z,57.73
2018-12-18T21:09:59.838Z,56.27
2018-12-18T21:12:30.321Z,58.57
2018-12-18T21:15:00.884Z,58.83
2018-12-18T21:17:31.034Z,57.98
2018-12-18T21:20:01.541Z,51.87
2018-12-18T21:22:31.824Z,49.07
2018-12-18T21:25:02.056Z,47.60
2018-12-18T21:27:32.406Z,48.50
2018-12-18T21:30:02.874Z,46.68
2018-12-18T21:32:33.341Z,49.37
2018-12-18T21:35:03.766Z,48.90
2018-12-18T21:37:34.072Z,46.60
2018-12-18T21:40:04.658Z,46.93
2018-12-18T21:42:35.298Z,47.53
2018-12-18T21:45:05.919Z,45.90
2018-12-18T21:47:36.408Z,49.10
2018-12-18T21:50:07.067Z,52.47
2018-12-18T21:52:37.470Z,52.30
2018-12-18T21:55:07.288Z,50.83
2018-12-18T21:57:37.588Z,51.13
2018-12-18T22:00:09.545Z,51.53
2018-12-18T22:02:39.909Z,47.60
2018-12-18T22:05:10.332Z,57.10
2018-12-18T22:07:40.712Z,66.80
2018-12-18T22:10:11.105Z,66.62
2018-12-18T22:12:41.433Z,54.90
2018-12-18T22:15:11.921Z,49.97
2018-12-18T22:17:41.524Z,51.53
2018-12-18T22:20:11.753Z,51.53
2018-12-18T22:22:41.568Z,58.70
2018-12-18T22:25:11.189Z,58.83
2018-12-18T22:27:41.585Z,57.98
2018-12-18T22:30:11.500Z,59.05
2018-12-18T22:32:41.157Z,53.90
2018-12-18T22:35:11.444Z,49.13
2018-12-18T22:37:41.850Z,47.33
2018-12-18T22:40:12.314Z,45.53
2018-12-18T22:42:42.717Z,45.55
2018-12-18T22:45:13.122Z,45.92
2018-12-18T22:47:43.509Z,43.95
2018-12-18T22:50:13.980Z,48.07
2018-12-18T22:52:44.581Z,47.48
2018-12-18T22:55:15.048Z,46.23
2018-12-18T22:57:44.919Z,65.55
2018-12-18T23:00:19.225Z,63.50
2018-12-18T23:02:49.697Z,56.30
2018-12-18T23:05:20.214Z,55.67
2018-12-18T23:07:50.643Z,50.27
2018-12-18T23:10:21.135Z,47.90
2018-12-18T23:12:51.368Z,49.42
2018-12-18T23:15:21.764Z,47.95
2018-12-18T23:17:52.108Z,47.63
2018-12-18T23:20:22.381Z,49.88
2018-12-18T23:22:52.872Z,50.73
2018-12-18T23:25:23.249Z,51.08
2018-12-18T23:27:53.664Z,49.77
2018-12-18T23:30:24.117Z,51.93
2018-12-18T23:32:54.471Z,50.67
2018-12-18T23:35:25.009Z,50.25
2018-12-18T23:37:55.526Z,51.33
2018-12-18T23:40:26.005Z,53.55
2018-12-18T23:42:56.280Z,52.47
2018-12-18T23:45:26.642Z,54.08
2018-12-18T23:47:56.404Z,52.20
2018-12-18T23:50:26.832Z,57.33
2018-12-18T23:52:57.052Z,54.20
2018-12-18T23:55:27.444Z,57.35
2018-12-18T23:57:57.879Z,58.98
